sensor_id;sensor_type;location;lat;lon;timestamp;temperature;humidity
45383;DHT22;42455;51.660;5.824;2024-01-15T00:04:44;4.4;98.5
45383;DHT22;42455;51.660;5.824;2024-01-15T00:15:03;4.4;98.5
45383;DHT22;42455;51.660;5.824;2024-01-15T00:25:28;4.4;98.5
45383;DHT22;42455;51.660;5.824;2024-01-15T00:30:40;4.4;98.5
45383;DHT22;42455;51.660;5.824;2024-01-15T00:35:45;4.4;98.5
45383;DHT22;42455;51.660;5.824;2024-01-15T00:41:04;4.4;98.5
45383;DHT22;42455;51.660;5.824;2024-01-15T00:46:22;4.4;98.5
45383;DHT22;42455;51.660;5.824;2024-01-15T00:51:47;4.3;98.5
45383;DHT22;42455;51.660;5.824;2024-01-15T00:57:05;4.3;98.5
45383;DHT22;42455;51.660;5.824;2024-01-15T01:02:17;4.3;98.5
45383;DHT22;42455;51.660;5.824;2024-01-15T01:07:22;4.3;98.5
45383;DHT22;42455;51.660;5.824;2024-01-15T01:12:35;4.3;98.5
45383;DHT22;42455;51.660;5.824;2024-01-15T01:17:47;4.3;98.5
45383;DHT22;42455;51.660;5.824;2024-01-15T01:23:05;4.2;98.5
45383;DHT22;42455;51.660;5.824;2024-01-15T01:28:12;4.2;98.5
45383;DHT22;42455;51.660;5.824;2024-01-15T01:33:24;4.1;98.5
45383;DHT22;42455;51.660;5.824;2024-01-15T01:38:29;4.1;98.5
45383;DHT22;42455;51.660;5.824;2024-01-15T01:43:35;4.0;98.5
45383;DHT22;42455;51.660;5.824;2024-01-15T01:48:42;4.0;98.5
45383;DHT22;42455;51.660;5.824;2024-01-15T01:53:49;3.9;98.5
45383;DHT22;42455;51.660;5.824;2024-01-15T01:58:54;3.9;98.5
45383;DHT22;42455;51.660;5.824;2024-01-15T02:04:01;3.8;98.5
45383;DHT22;42455;51.660;5.824;2024-01-15T02:09:07;3.8;98.5
45383;DHT22;42455;51.660;5.824;2024-01-15T02:14:13;3.7;98.5
45383;DHT22;42455;51.660;5.824;2024-01-15T02:19:19;3.7;98.5
45383;DHT22;42455;51.660;5.824;2024-01-15T02:24:25;3.7;98.5
45383;DHT22;42455;51.660;5.824;2024-01-15T02:29:31;3.6;98.5
45383;DHT22;42455;51.660;5.824;2024-01-15T02:34:38;3.6;98.5
45383;DHT22;42455;51.660;5.824;2024-01-15T02:39:44;3.6;98.5
45383;DHT22;42455;51.660;5.824;2024-01-15T02:44:50;3.6;98.5
45383;DHT22;42455;51.660;5.824;2024-01-15T02:49:56;3.6;98.5
45383;DHT22;42455;51.660;5.824;2024-01-15T02:55:02;3.5;98.5
45383;DHT22;42455;51.660;5.824;2024-01-15T03:05:15;3.5;98.5
45383;DHT22;42455;51.660;5.824;2024-01-15T03:10:21;3.5;98.5
45383;DHT22;42455;51.660;5.824;2024-01-15T03:15:27;3.5;98.5
45383;DHT22;42455;51.660;5.824;2024-01-15T03:20:34;3.4;98.5
45383;DHT22;42455;51.660;5.824;2024-01-15T03:25:40;3.4;98.5
45383;DHT22;42455;51.660;5.824;2024-01-15T03:30:46;3.4;98.5
45383;DHT22;42455;51.660;5.824;2024-01-15T03:35:52;3.4;98.5
45383;DHT22;42455;51.660;5.824;2024-01-15T03:40:58;3.4;98.5
45383;DHT22;42455;51.660;5.824;2024-01-15T03:46:05;3.3;98.5
45383;DHT22;42455;51.660;5.824;2024-01-15T03:51:11;3.3;98.5
45383;DHT22;42455;51.660;5.824;2024-01-15T03:56:17;3.4;98.5
45383;DHT22;42455;51.660;5.824;2024-01-15T04:01:23;3.3;98.5
45383;DHT22;42455;51.660;5.824;2024-01-15T04:06:29;3.3;98.5
45383;DHT22;42455;51.660;5.824;2024-01-15T04:11:36;3.4;98.5
45383;DHT22;42455;51.660;5.824;2024-01-15T04:16:42;3.3;98.5
45383;DHT22;42455;51.660;5.824;2024-01-15T04:21:48;3.3;98.5
45383;DHT22;42455;51.660;5.824;2024-01-15T04:26:54;3.3;98.5
45383;DHT22;42455;51.660;5.824;2024-01-15T04:32:00;3.3;98.5
45383;DHT22;42455;51.660;5.824;2024-01-15T04:37:07;3.4;98.5
45383;DHT22;42455;51.660;5.824;2024-01-15T04:42:13;3.4;98.5
45383;DHT22;42455;51.660;5.824;2024-01-15T04:47:19;3.4;98.5
45383;DHT22;42455;51.660;5.824;2024-01-15T04:52:25;3.4;98.5
45383;DHT22;42455;51.660;5.824;2024-01-15T04:57:31;3.4;98.5
45383;DHT22;42455;51.660;5.824;2024-01-15T05:02:38;3.5;98.5
45383;DHT22;42455;51.660;5.824;2024-01-15T05:07:44;3.5;98.5
45383;DHT22;42455;51.660;5.824;2024-01-15T05:12:50;3.5;98.5
45383;DHT22;42455;51.660;5.824;2024-01-15T05:17:56;3.5;98.5
45383;DHT22;42455;51.660;5.824;2024-01-15T05:23:02;3.6;98.5
45383;DHT22;42455;51.660;5.824;2024-01-15T05:28:09;3.6;98.5
45383;DHT22;42455;51.660;5.824;2024-01-15T05:33:15;3.6;98.5
45383;DHT22;42455;51.660;5.824;2024-01-15T05:38:21;3.7;98.5
45383;DHT22;42455;51.660;5.824;2024-01-15T05:43:27;3.7;98.5
45383;DHT22;42455;51.660;5.824;2024-01-15T05:48:33;3.7;98.5
45383;DHT22;42455;51.660;5.824;2024-01-15T05:53:40;3.6;98.5
45383;DHT22;42455;51.660;5.824;2024-01-15T05:58:46;3.7;98.5
45383;DHT22;42455;51.660;5.824;2024-01-15T06:03:52;3.7;98.5
45383;DHT22;42455;51.660;5.824;2024-01-15T06:08:58;3.7;98.5
45383;DHT22;42455;51.660;5.824;2024-01-15T06:14:05;3.7;98.5
45383;DHT22;42455;51.660;5.824;2024-01-15T06:19:11;3.7;98.5
45383;DHT22;42455;51.660;5.824;2024-01-15T06:24:17;3.6;98.5
45383;DHT22;42455;51.660;5.824;2024-01-15T06:29:26;3.6;98.5
45383;DHT22;42455;51.660;5.824;2024-01-15T06:34:29;3.6;98.5
45383;DHT22;42455;51.660;5.824;2024-01-15T06:39:36;3.6;98.5
45383;DHT22;42455;51.660;5.824;2024-01-15T06:44:42;3.6;98.5
45383;DHT22;42455;51.660;5.824;2024-01-15T06:49:48;3.6;98.5
45383;DHT22;42455;51.660;5.824;2024-01-15T06:54:54;3.6;98.5
45383;DHT22;42455;51.660;5.824;2024-01-15T07:05:07;3.6;98.5
45383;DHT22;42455;51.660;5.824;2024-01-15T07:10:12;3.6;98.5
45383;DHT22;42455;51.660;5.824;2024-01-15T07:15:18;3.6;98.5
45383;DHT22;42455;51.660;5.824;2024-01-15T07:20:24;3.6;98.5
45383;DHT22;42455;51.660;5.824;2024-01-15T07:30:37;3.7;98.5
45383;DHT22;42455;51.660;5.824;2024-01-15T07:35:43;3.7;98.5
45383;DHT22;42455;51.660;5.824;2024-01-15T07:40:49;3.7;98.5
45383;DHT22;42455;51.660;5.824;2024-01-15T07:45:55;3.7;98.5
45383;DHT22;42455;51.660;5.824;2024-01-15T07:51:01;3.7;98.5
45383;DHT22;42455;51.660;5.824;2024-01-15T07:56:08;3.7;98.5
45383;DHT22;42455;51.660;5.824;2024-01-15T08:01:14;3.7;98.5
45383;DHT22;42455;51.660;5.824;2024-01-15T08:06:20;3.7;98.5
45383;DHT22;42455;51.660;5.824;2024-01-15T08:11:26;3.7;98.5
45383;DHT22;42455;51.660;5.824;2024-01-15T08:16:33;3.7;98.5
45383;DHT22;42455;51.660;5.824;2024-01-15T08:21:39;3.7;98.5
45383;DHT22;42455;51.660;5.824;2024-01-15T08:26:45;3.7;98.5
45383;DHT22;42455;51.660;5.824;2024-01-15T08:31:52;3.7;98.5
45383;DHT22;42455;51.660;5.824;2024-01-15T08:36:57;3.7;98.5
45383;DHT22;42455;51.660;5.824;2024-01-15T08:42:04;3.7;98.5
45383;DHT22;42455;51.660;5.824;2024-01-15T08:47:10;3.7;98.5
45383;DHT22;42455;51.660;5.824;2024-01-15T08:52:16;3.7;98.5
45383;DHT22;42455;51.660;5.824;2024-01-15T08:57:22;3.7;98.5
45383;DHT22;42455;51.660;5.824;2024-01-15T09:02:28;3.7;98.5
45383;DHT22;42455;51.660;5.824;2024-01-15T09:07:35;3.7;98.5
45383;DHT22;42455;51.660;5.824;2024-01-15T09:12:41;3.7;98.5
45383;DHT22;42455;51.660;5.824;2024-01-15T09:17:47;3.7;98.5
45383;DHT22;42455;51.660;5.824;2024-01-15T09:22:53;3.7;98.5
45383;DHT22;42455;51.660;5.824;2024-01-15T09:28:00;3.7;98.5
45383;DHT22;42455;51.660;5.824;2024-01-15T09:33:06;3.7;98.5
45383;DHT22;42455;51.660;5.824;2024-01-15T09:43:19;3.7;98.5
45383;DHT22;42455;51.660;5.824;2024-01-15T09:48:24;3.7;98.5
45383;DHT22;42455;51.660;5.824;2024-01-15T09:53:31;3.7;98.5
45383;DHT22;42455;51.660;5.824;2024-01-15T09:58:37;3.7;98.5
45383;DHT22;42455;51.660;5.824;2024-01-15T10:03:44;3.7;98.5
45383;DHT22;42455;51.660;5.824;2024-01-15T10:08:50;3.7;98.5
45383;DHT22;42455;51.660;5.824;2024-01-15T10:13:55;3.7;98.5
45383;DHT22;42455;51.660;5.824;2024-01-15T10:19:02;3.7;98.5
45383;DHT22;42455;51.660;5.824;2024-01-15T10:24:08;3.8;98.5
45383;DHT22;42455;51.660;5.824;2024-01-15T10:29:14;3.9;98.5
45383;DHT22;42455;51.660;5.824;2024-01-15T10:34:20;4.1;98.5
45383;DHT22;42455;51.660;5.824;2024-01-15T10:39:27;4.1;98.5
45383;DHT22;42455;51.660;5.824;2024-01-15T10:44:32;4.1;98.5
45383;DHT22;42455;51.660;5.824;2024-01-15T10:54:45;4.2;98.5
45383;DHT22;42455;51.660;5.824;2024-01-15T10:59:51;4.2;98.5
45383;DHT22;42455;51.660;5.824;2024-01-15T11:04:58;4.3;98.5
45383;DHT22;42455;51.660;5.824;2024-01-15T11:10:04;4.3;98.5
45383;DHT22;42455;51.660;5.824;2024-01-15T11:15:19;4.4;98.5
45383;DHT22;42455;51.660;5.824;2024-01-15T11:20:16;4.4;98.5
45383;DHT22;42455;51.660;5.824;2024-01-15T11:25:22;4.5;98.5
45383;DHT22;42455;51.660;5.824;2024-01-15T11:30:28;4.5;98.5
45383;DHT22;42455;51.660;5.824;2024-01-15T11:35:48;4.6;98.5
45383;DHT22;42455;51.660;5.824;2024-01-15T11:40:41;4.7;98.5
45383;DHT22;42455;51.660;5.824;2024-01-15T11:45:52;4.8;98.5
45383;DHT22;42455;51.660;5.824;2024-01-15T11:50:56;4.9;98.5
45383;DHT22;42455;51.660;5.824;2024-01-15T11:56:02;5.0;98.5
45383;DHT22;42455;51.660;5.824;2024-01-15T12:01:06;5.0;98.5
45383;DHT22;42455;51.660;5.824;2024-01-15T12:06:12;5.0;98.5
45383;DHT22;42455;51.660;5.824;2024-01-15T12:11:25;4.9;98.5
45383;DHT22;42455;51.660;5.824;2024-01-15T12:16:25;4.9;98.5
45383;DHT22;42455;51.660;5.824;2024-01-15T12:21:30;4.9;98.5
45383;DHT22;42455;51.660;5.824;2024-01-15T12:26:37;4.8;98.5
45383;DHT22;42455;51.660;5.824;2024-01-15T12:31:46;4.7;98.5
45383;DHT22;42455;51.660;5.824;2024-01-15T12:36:49;4.7;98.5
45383;DHT22;42455;51.660;5.824;2024-01-15T12:41:55;4.7;98.5
45383;DHT22;42455;51.660;5.824;2024-01-15T12:47:01;4.7;98.5
45383;DHT22;42455;51.660;5.824;2024-01-15T12:52:08;4.7;98.5
45383;DHT22;42455;51.660;5.824;2024-01-15T12:57:13;4.7;98.5
45383;DHT22;42455;51.660;5.824;2024-01-15T13:02:19;4.7;98.5
45383;DHT22;42455;51.660;5.824;2024-01-15T13:07:27;4.7;98.5
45383;DHT22;42455;51.660;5.824;2024-01-15T13:12:32;4.7;98.5
45383;DHT22;42455;51.660;5.824;2024-01-15T13:17:38;4.6;98.5
45383;DHT22;42455;51.660;5.824;2024-01-15T13:22:44;4.6;98.5
45383;DHT22;42455;51.660;5.824;2024-01-15T13:27:50;4.6;98.5
45383;DHT22;42455;51.660;5.824;2024-01-15T13:32:57;4.6;98.5
45383;DHT22;42455;51.660;5.824;2024-01-15T13:38:03;4.7;98.5
45383;DHT22;42455;51.660;5.824;2024-01-15T13:43:08;4.6;98.5
45383;DHT22;42455;51.660;5.824;2024-01-15T13:48:14;4.6;98.5
45383;DHT22;42455;51.660;5.824;2024-01-15T13:53:20;4.6;98.5
45383;DHT22;42455;51.660;5.824;2024-01-15T13:58:26;4.6;98.5
45383;DHT22;42455;51.660;5.824;2024-01-15T14:03:33;4.6;98.5
45383;DHT22;42455;51.660;5.824;2024-01-15T14:08:39;4.6;98.5
45383;DHT22;42455;51.660;5.824;2024-01-15T14:13:45;4.6;98.0
45383;DHT22;42455;51.660;5.824;2024-01-15T14:18:51;4.5;98.0
45383;DHT22;42455;51.660;5.824;2024-01-15T14:29:04;4.4;98.0
45383;DHT22;42455;51.660;5.824;2024-01-15T14:34:10;4.5;98.5
45383;DHT22;42455;51.660;5.824;2024-01-15T14:39:16;4.5;98.5
45383;DHT22;42455;51.660;5.824;2024-01-15T14:44:22;4.5;98.0
45383;DHT22;42455;51.660;5.824;2024-01-15T14:49:28;4.5;98.0
45383;DHT22;42455;51.660;5.824;2024-01-15T14:54:35;4.5;98.0
45383;DHT22;42455;51.660;5.824;2024-01-15T14:59:41;4.4;98.0
45383;DHT22;42455;51.660;5.824;2024-01-15T15:04:47;4.4;98.0
45383;DHT22;42455;51.660;5.824;2024-01-15T15:09:53;4.4;98.0
45383;DHT22;42455;51.660;5.824;2024-01-15T15:14:59;4.4;98.0
45383;DHT22;42455;51.660;5.824;2024-01-15T15:20:06;4.3;98.0
45383;DHT22;42455;51.660;5.824;2024-01-15T15:25:12;4.3;98.0
45383;DHT22;42455;51.660;5.824;2024-01-15T15:30:18;4.2;98.0
45383;DHT22;42455;51.660;5.824;2024-01-15T15:35:25;4.2;98.0
45383;DHT22;42455;51.660;5.824;2024-01-15T15:40:31;4.2;98.0
45383;DHT22;42455;51.660;5.824;2024-01-15T15:45:37;4.2;98.0
45383;DHT22;42455;51.660;5.824;2024-01-15T15:50:43;4.2;98.0
45383;DHT22;42455;51.660;5.824;2024-01-15T15:55:49;4.2;98.0
45383;DHT22;42455;51.660;5.824;2024-01-15T16:00:55;4.1;98.0
45383;DHT22;42455;51.660;5.824;2024-01-15T16:06:02;4.1;98.0
45383;DHT22;42455;51.660;5.824;2024-01-15T16:11:08;4.1;98.0
45383;DHT22;42455;51.660;5.824;2024-01-15T16:16:14;4.0;98.0
45383;DHT22;42455;51.660;5.824;2024-01-15T16:21:20;4.0;98.0
45383;DHT22;42455;51.660;5.824;2024-01-15T16:26:26;3.9;98.0
45383;DHT22;42455;51.660;5.824;2024-01-15T16:31:33;3.9;98.0
45383;DHT22;42455;51.660;5.824;2024-01-15T16:36:39;3.9;98.0
45383;DHT22;42455;51.660;5.824;2024-01-15T16:41:45;3.8;98.0
45383;DHT22;42455;51.660;5.824;2024-01-15T16:46:51;3.8;98.0
45383;DHT22;42455;51.660;5.824;2024-01-15T16:51:57;3.8;98.0
45383;DHT22;42455;51.660;5.824;2024-01-15T16:57:04;3.8;98.5
45383;DHT22;42455;51.660;5.824;2024-01-15T17:02:10;3.8;98.0
45383;DHT22;42455;51.660;5.824;2024-01-15T17:07:16;3.8;98.0
45383;DHT22;42455;51.660;5.824;2024-01-15T17:12:22;3.7;98.0
45383;DHT22;42455;51.660;5.824;2024-01-15T17:17:29;3.7;98.0
45383;DHT22;42455;51.660;5.824;2024-01-15T17:22:35;3.7;98.0
45383;DHT22;42455;51.660;5.824;2024-01-15T17:27:41;3.7;98.0
45383;DHT22;42455;51.660;5.824;2024-01-15T17:32:47;3.6;98.0
45383;DHT22;42455;51.660;5.824;2024-01-15T17:37:53;3.6;98.0
45383;DHT22;42455;51.660;5.824;2024-01-15T17:43:00;3.6;98.0
45383;DHT22;42455;51.660;5.824;2024-01-15T17:48:06;3.5;98.0
45383;DHT22;42455;51.660;5.824;2024-01-15T17:53:12;3.5;98.0
45383;DHT22;42455;51.660;5.824;2024-01-15T17:58:18;3.4;98.0
45383;DHT22;42455;51.660;5.824;2024-01-15T18:03:24;3.4;98.0
45383;DHT22;42455;51.660;5.824;2024-01-15T18:08:31;3.4;98.0
45383;DHT22;42455;51.660;5.824;2024-01-15T18:13:37;3.4;98.0
45383;DHT22;42455;51.660;5.824;2024-01-15T18:18:43;3.3;98.0
45383;DHT22;42455;51.660;5.824;2024-01-15T18:23:49;3.3;98.0
45383;DHT22;42455;51.660;5.824;2024-01-15T18:28:55;3.3;98.0
45383;DHT22;42455;51.660;5.824;2024-01-15T18:34:02;3.2;98.0
45383;DHT22;42455;51.660;5.824;2024-01-15T18:39:08;3.2;98.0
45383;DHT22;42455;51.660;5.824;2024-01-15T18:44:14;3.2;98.0
45383;DHT22;42455;51.660;5.824;2024-01-15T18:49:20;3.2;98.0
45383;DHT22;42455;51.660;5.824;2024-01-15T18:54:26;3.2;98.0
45383;DHT22;42455;51.660;5.824;2024-01-15T18:59:33;3.2;98.0
45383;DHT22;42455;51.660;5.824;2024-01-15T19:04:39;3.2;98.0
45383;DHT22;42455;51.660;5.824;2024-01-15T19:09:45;3.2;98.0
45383;DHT22;42455;51.660;5.824;2024-01-15T19:14:50;3.2;98.0
45383;DHT22;42455;51.660;5.824;2024-01-15T19:19:58;3.2;98.0
45383;DHT22;42455;51.660;5.824;2024-01-15T19:25:03;3.2;98.0
45383;DHT22;42455;51.660;5.824;2024-01-15T19:30:10;3.1;98.0
45383;DHT22;42455;51.660;5.824;2024-01-15T19:35:15;3.1;98.0
45383;DHT22;42455;51.660;5.824;2024-01-15T19:40:21;3.1;98.0
45383;DHT22;42455;51.660;5.824;2024-01-15T19:45:28;3.1;98.0
45383;DHT22;42455;51.660;5.824;2024-01-15T19:50:34;3.0;98.0
45383;DHT22;42455;51.660;5.824;2024-01-15T19:55:40;3.0;98.0
45383;DHT22;42455;51.660;5.824;2024-01-15T20:00:46;3.0;98.0
45383;DHT22;42455;51.660;5.824;2024-01-15T20:05:52;3.0;98.0
45383;DHT22;42455;51.660;5.824;2024-01-15T20:10:59;3.0;98.0
45383;DHT22;42455;51.660;5.824;2024-01-15T20:16:05;3.0;98.5
45383;DHT22;42455;51.660;5.824;2024-01-15T20:21:11;3.1;98.5
45383;DHT22;42455;51.660;5.824;2024-01-15T20:26:17;3.1;98.5
45383;DHT22;42455;51.660;5.824;2024-01-15T20:31:23;3.1;98.5
45383;DHT22;42455;51.660;5.824;2024-01-15T20:36:30;3.1;98.5
45383;DHT22;42455;51.660;5.824;2024-01-15T20:41:36;3.2;98.5
45383;DHT22;42455;51.660;5.824;2024-01-15T20:46:42;3.2;98.5
45383;DHT22;42455;51.660;5.824;2024-01-15T20:51:48;3.3;98.5
45383;DHT22;42455;51.660;5.824;2024-01-15T20:56:55;3.3;98.5
45383;DHT22;42455;51.660;5.824;2024-01-15T21:02:01;3.3;98.5
45383;DHT22;42455;51.660;5.824;2024-01-15T21:07:07;3.3;98.5
45383;DHT22;42455;51.660;5.824;2024-01-15T21:12:13;3.3;98.5
45383;DHT22;42455;51.660;5.824;2024-01-15T21:17:19;3.3;98.5
45383;DHT22;42455;51.660;5.824;2024-01-15T21:22:26;3.3;98.5
45383;DHT22;42455;51.660;5.824;2024-01-15T21:27:32;3.3;98.5
45383;DHT22;42455;51.660;5.824;2024-01-15T21:32:38;3.3;98.5
45383;DHT22;42455;51.660;5.824;2024-01-15T21:37:44;3.3;98.5
45383;DHT22;42455;51.660;5.824;2024-01-15T21:42:50;3.3;98.5
45383;DHT22;42455;51.660;5.824;2024-01-15T21:47:56;3.2;98.5
45383;DHT22;42455;51.660;5.824;2024-01-15T21:53:03;3.2;98.5
45383;DHT22;42455;51.660;5.824;2024-01-15T21:58:09;3.2;98.5
45383;DHT22;42455;51.660;5.824;2024-01-15T22:03:15;3.2;98.5
45383;DHT22;42455;51.660;5.824;2024-01-15T22:08:21;3.2;98.5
45383;DHT22;42455;51.660;5.824;2024-01-15T22:13:28;3.1;98.5
45383;DHT22;42455;51.660;5.824;2024-01-15T22:18:34;3.1;98.5
45383;DHT22;42455;51.660;5.824;2024-01-15T22:23:40;3.1;98.5
45383;DHT22;42455;51.660;5.824;2024-01-15T22:28:46;3.1;98.5
45383;DHT22;42455;51.660;5.824;2024-01-15T22:33:53;3.0;98.5
45383;DHT22;42455;51.660;5.824;2024-01-15T22:38:59;3.0;98.5
45383;DHT22;42455;51.660;5.824;2024-01-15T22:44:05;3.0;98.5
45383;DHT22;42455;51.660;5.824;2024-01-15T22:49:11;2.9;98.5
45383;DHT22;42455;51.660;5.824;2024-01-15T22:54:17;2.9;98.0
45383;DHT22;42455;51.660;5.824;2024-01-15T22:59:23;2.9;98.0
45383;DHT22;42455;51.660;5.824;2024-01-15T23:04:30;2.8;98.0
45383;DHT22;42455;51.660;5.824;2024-01-15T23:09:36;2.8;98.5
45383;DHT22;42455;51.660;5.824;2024-01-15T23:14:42;2.8;98.5
45383;DHT22;42455;51.660;5.824;2024-01-15T23:19:48;2.7;98.0
45383;DHT22;42455;51.660;5.824;2024-01-15T23:24:54;2.7;98.5
45383;DHT22;42455;51.660;5.824;2024-01-15T23:30:01;2.7;98.5
45383;DHT22;42455;51.660;5.824;2024-01-15T23:35:07;2.7;98.5
45383;DHT22;42455;51.660;5.824;2024-01-15T23:40:13;2.7;98.5
45383;DHT22;42455;51.660;5.824;2024-01-15T23:45:19;2.7;98.5
45383;DHT22;42455;51.660;5.824;2024-01-15T23:50:26;2.7;98.5
45383;DHT22;42455;51.660;5.824;2024-01-15T23:55:32;2.7;98.5
